createdAt,value
2023-05-23T00:00:26.553Z,95951
2023-05-23T00:01:26.552Z,95951
2023-05-23T00:02:26.629Z,95951
2023-05-23T00:03:26.715Z,95950
2023-05-23T00:04:26.691Z,95950
2023-05-23T00:05:26.505Z,95950
2023-05-23T00:06:26.590Z,95950
2023-05-23T00:07:26.576Z,95949
2023-05-23T00:08:26.513Z,95952
2023-05-23T00:09:26.588Z,95954
2023-05-23T00:10:26.536Z,95951
2023-05-23T00:11:26.588Z,95951
2023-05-23T00:13:26.654Z,95951
2023-05-23T00:14:26.600Z,95951
2023-05-23T00:15:26.553Z,95951
2023-05-23T00:16:26.619Z,95952
2023-05-23T00:17:26.641Z,95950
2023-05-23T00:18:26.544Z,95949
2023-05-23T00:19:26.654Z,95949
2023-05-23T00:20:26.613Z,95949
2023-05-23T00:21:26.591Z,95947
2023-05-23T00:23:26.574Z,95945
2023-05-23T00:24:26.591Z,95945
2023-05-23T00:26:26.600Z,95946
2023-05-23T00:27:26.640Z,95949
2023-05-23T00:28:26.617Z,95949
2023-05-23T00:29:26.626Z,95948
2023-05-23T00:30:26.651Z,95947
2023-05-23T00:31:26.659Z,95946
2023-05-23T00:32:26.641Z,95945
2023-05-23T00:33:26.624Z,95947
2023-05-23T00:34:26.652Z,95948
2023-05-23T00:35:26.601Z,95946
2023-05-23T00:36:26.619Z,95948
2023-05-23T00:37:26.629Z,95947
2023-05-23T00:38:26.670Z,95947
2023-05-23T00:39:26.621Z,95947
2023-05-23T00:40:26.657Z,95946
2023-05-23T00:41:26.653Z,95949
2023-05-23T00:42:26.677Z,95950
2023-05-23T00:43:26.672Z,95948
2023-05-23T00:45:26.663Z,95950
2023-05-23T00:46:26.734Z,95952
2023-05-23T00:48:26.712Z,95948
2023-05-23T00:49:26.651Z,95947
2023-05-23T00:50:26.686Z,95950
2023-05-23T00:51:26.674Z,95946
2023-05-23T00:52:26.641Z,95946
2023-05-23T00:53:26.696Z,95948
2023-05-23T00:54:26.663Z,95948
2023-05-23T00:55:26.700Z,95949
2023-05-23T00:56:26.689Z,95950
2023-05-23T00:57:26.678Z,95951
2023-05-23T00:58:26.736Z,95950
2023-05-23T00:59:26.711Z,95952
2023-05-23T01:00:26.719Z,95952
2023-05-23T01:01:26.863Z,95954
2023-05-23T01:02:26.774Z,95951
2023-05-23T01:03:26.776Z,95955
2023-05-23T01:04:27.234Z,95952
2023-05-23T01:05:26.695Z,95951
2023-05-23T01:06:26.722Z,95948
2023-05-23T01:07:26.716Z,95944
2023-05-23T01:08:26.725Z,95943
2023-05-23T01:09:26.690Z,95943
2023-05-23T01:10:26.715Z,95944
2023-05-23T01:11:26.680Z,95942
2023-05-23T01:12:26.720Z,95943
2023-05-23T01:14:26.729Z,95946
2023-05-23T01:15:26.709Z,95945
2023-05-23T01:16:26.768Z,95944
2023-05-23T01:17:26.780Z,95945
2023-05-23T01:18:26.703Z,95945
2023-05-23T01:19:26.905Z,95941
2023-05-23T01:20:26.752Z,95940
2023-05-23T01:22:26.759Z,95941
2023-05-23T01:23:26.735Z,95942
2023-05-23T01:24:26.751Z,95944
2023-05-23T01:25:26.787Z,95946
2023-05-23T01:26:26.792Z,95943
2023-05-23T01:27:26.780Z,95944
2023-05-23T01:28:26.756Z,95948
2023-05-23T01:29:26.829Z,95951
2023-05-23T01:30:26.777Z,95950
2023-05-23T01:31:26.800Z,95950
2023-05-23T01:32:26.822Z,95951
2023-05-23T01:33:26.773Z,95950
2023-05-23T01:34:26.787Z,95952
2023-05-23T01:35:26.793Z,95954
2023-05-23T01:36:26.773Z,95954
2023-05-23T01:37:26.785Z,95955
2023-05-23T01:38:26.806Z,95958
2023-05-23T01:39:26.805Z,95959
2023-05-23T01:40:26.791Z,95962
2023-05-23T01:41:26.768Z,95962
2023-05-23T01:42:26.795Z,95963
2023-05-23T01:43:26.811Z,95965
2023-05-23T01:44:26.791Z,95964
2023-05-23T01:45:26.882Z,95963
2023-05-23T01:46:26.874Z,95966
2023-05-23T01:47:26.850Z,95966
2023-05-23T01:49:26.820Z,95959
2023-05-23T01:53:26.887Z,95960
2023-05-23T01:54:26.859Z,95958
2023-05-23T01:57:26.825Z,95960
2023-05-23T01:59:26.894Z,95957
2023-05-23T02:00:26.874Z,95956
2023-05-23T02:02:26.934Z,95959
2023-05-23T02:03:26.987Z,95957
2023-05-23T02:04:26.874Z,95957
2023-05-23T02:05:26.857Z,95957
2023-05-23T02:06:26.887Z,95959
2023-05-23T02:07:26.889Z,95962
2023-05-23T02:08:26.852Z,95960
2023-05-23T02:09:26.893Z,95962
2023-05-23T02:10:26.850Z,95962
2023-05-23T02:11:26.900Z,95967
2023-05-23T02:12:26.910Z,95966
2023-05-23T02:13:26.893Z,95966
2023-05-23T02:14:26.881Z,95968
2023-05-23T02:15:26.858Z,95969
2023-05-23T02:16:26.946Z,95968
2023-05-23T02:18:26.868Z,95968
2023-05-23T02:19:26.998Z,95967
2023-05-23T02:20:26.937Z,95971
2023-05-23T02:21:26.895Z,95972
2023-05-23T02:22:26.932Z,95969
2023-05-23T02:24:26.937Z,95969
2023-05-23T02:25:26.906Z,95974
2023-05-23T02:26:26.909Z,95970
2023-05-23T02:27:26.940Z,95969
2023-05-23T02:29:26.927Z,95971
2023-05-23T02:31:26.928Z,95976
2023-05-23T02:32:26.993Z,95971
2023-05-23T02:33:26.978Z,95973
2023-05-23T02:34:26.964Z,95972
2023-05-23T02:35:26.941Z,95972
2023-05-23T02:37:26.941Z,95974
2023-05-23T02:38:26.975Z,95973
2023-05-23T02:39:26.958Z,95973
2023-05-23T02:40:26.971Z,95971
2023-05-23T02:41:26.936Z,95970
2023-05-23T02:42:26.954Z,95973
2023-05-23T02:43:26.950Z,95975
2023-05-23T02:44:26.918Z,95975
2023-05-23T02:45:26.962Z,95973
2023-05-23T02:46:27.009Z,95978
2023-05-23T02:47:26.990Z,95974
2023-05-23T02:48:27.003Z,95974
2023-05-23T02:49:26.962Z,95975
2023-05-23T02:50:26.986Z,95971
2023-05-23T02:51:27.013Z,95971
2023-05-23T02:52:27.028Z,95969
2023-05-23T02:53:26.994Z,95974
2023-05-23T02:54:26.961Z,95974
2023-05-23T02:55:27.024Z,95976
2023-05-23T02:57:27.044Z,95982
2023-05-23T02:58:27.020Z,95982
2023-05-23T02:59:26.992Z,95983
2023-05-23T03:00:27.019Z,95984
2023-05-23T03:01:27.074Z,95985
2023-05-23T03:02:27.088Z,95983
2023-05-23T03:03:27.074Z,95983
2023-05-23T03:04:27.005Z,95982
2023-05-23T03:06:27.017Z,95980
2023-05-23T03:07:28.884Z,95983
2023-05-23T03:08:27.017Z,95982
2023-05-23T03:11:27.052Z,95983
2023-05-23T03:13:26.984Z,95983
2023-05-23T03:16:27.084Z,95987
2023-05-23T03:17:27.053Z,95984
2023-05-23T03:18:27.039Z,95986
2023-05-23T03:19:27.129Z,95985
2023-05-23T03:20:27.020Z,95985
2023-05-23T03:21:27.056Z,95987
2023-05-23T03:23:27.027Z,95987
2023-05-23T03:24:27.051Z,95987
2023-05-23T03:25:27.078Z,95984
2023-05-23T03:26:27.067Z,95991
2023-05-23T03:27:27.069Z,95989
2023-05-23T03:28:27.029Z,95990
2023-05-23T03:29:27.079Z,95992
2023-05-23T03:31:27.103Z,95991
2023-05-23T03:34:27.091Z,95995
2023-05-23T03:35:27.073Z,95994
2023-05-23T03:38:27.099Z,95998
2023-05-23T03:40:27.211Z,95995
2023-05-23T03:41:27.060Z,95994
2023-05-23T03:42:27.102Z,95998
2023-05-23T03:44:27.106Z,95995
2023-05-23T03:45:27.105Z,95995
2023-05-23T03:46:27.102Z,95995
2023-05-23T03:47:27.146Z,95995
2023-05-23T03:48:27.105Z,96000
2023-05-23T03:49:27.076Z,96000
2023-05-23T03:52:27.157Z,95998
2023-05-23T03:53:27.140Z,95997
2023-05-23T03:54:27.109Z,95998
2023-05-23T03:55:27.125Z,96003
2023-05-23T03:58:27.140Z,96007
2023-05-23T03:59:27.118Z,96009
2023-05-23T04:00:27.150Z,96007
2023-05-23T04:01:27.149Z,96009
2023-05-23T04:05:27.181Z,96010
2023-05-23T04:06:27.155Z,96017
2023-05-23T04:07:27.123Z,96017
2023-05-23T04:09:27.186Z,96015
2023-05-23T04:11:27.175Z,96013
2023-05-23T04:13:27.174Z,96015
2023-05-23T04:14:27.179Z,96022
2023-05-23T04:15:27.178Z,96017
2023-05-23T04:16:27.202Z,96019
2023-05-23T04:17:27.217Z,96017
2023-05-23T04:18:27.196Z,96021
2023-05-23T04:19:27.267Z,96025
2023-05-23T04:20:27.169Z,96025
2023-05-23T04:21:27.221Z,96026
2023-05-23T04:22:27.193Z,96022
2023-05-23T04:23:27.206Z,96022
2023-05-23T04:24:27.229Z,96021
2023-05-23T04:25:27.178Z,96021
2023-05-23T04:26:27.228Z,96024
2023-05-23T04:27:27.236Z,96023
2023-05-23T04:28:27.227Z,96028
2023-05-23T04:29:27.245Z,96027
2023-05-23T04:30:27.206Z,96028
2023-05-23T04:31:27.297Z,96026
2023-05-23T04:33:27.226Z,96032
2023-05-23T04:34:27.269Z,96031
2023-05-23T04:35:27.268Z,96031
2023-05-23T04:37:27.241Z,96031
2023-05-23T04:38:27.219Z,96032
2023-05-23T04:39:27.277Z,96029
2023-05-23T04:40:27.288Z,96029
2023-05-23T04:41:27.347Z,96029
2023-05-23T04:42:27.315Z,96027
2023-05-23T04:43:27.246Z,96029
2023-05-23T04:45:27.321Z,96033
2023-05-23T04:46:27.279Z,96033
2023-05-23T04:47:27.322Z,96033
2023-05-23T04:49:27.312Z,96032
2023-05-23T04:50:27.273Z,96037
2023-05-23T04:52:27.280Z,96035
2023-05-23T04:53:27.305Z,96036
2023-05-23T04:55:27.324Z,96035
2023-05-23T04:56:27.297Z,96036
2023-05-23T04:58:27.277Z,96038
2023-05-23T04:59:27.286Z,96036
2023-05-23T05:00:27.302Z,96037
2023-05-23T05:02:27.484Z,96042
2023-05-23T05:03:27.325Z,96040
2023-05-23T05:04:27.428Z,96042
2023-05-23T05:05:27.315Z,96043
2023-05-23T05:06:27.340Z,96044
2023-05-23T05:07:27.335Z,96045
2023-05-23T05:09:27.298Z,96044
2023-05-23T05:10:27.349Z,96045
2023-05-23T05:12:27.358Z,96045
2023-05-23T05:13:27.360Z,96045
2023-05-23T05:14:27.354Z,96046
2023-05-23T05:15:27.390Z,96044
2023-05-23T05:16:27.423Z,96041
2023-05-23T05:17:27.373Z,96041
2023-05-23T05:18:27.379Z,96045
2023-05-23T05:19:27.442Z,96045
2023-05-23T05:20:27.382Z,96044
2023-05-23T05:21:27.345Z,96047
2023-05-23T05:22:27.351Z,96047
2023-05-23T05:23:27.361Z,96046
2023-05-23T05:24:27.354Z,96042
2023-05-23T05:25:27.367Z,96042
2023-05-23T05:26:27.364Z,96042
2023-05-23T05:27:27.917Z,96043
2023-05-23T05:28:27.376Z,96040
2023-05-23T05:29:27.451Z,96040
2023-05-23T05:30:27.372Z,96045
2023-05-23T05:31:27.410Z,96042
2023-05-23T05:32:27.399Z,96045
2023-05-23T05:33:27.379Z,96042
2023-05-23T05:34:27.412Z,96042
2023-05-23T05:35:27.389Z,96038
2023-05-23T05:36:27.426Z,96041
2023-05-23T05:37:27.394Z,96045
2023-05-23T05:38:27.392Z,96045
2023-05-23T05:39:27.420Z,96040
2023-05-23T05:40:27.452Z,96046
2023-05-23T05:41:27.400Z,96043
2023-05-23T05:42:27.436Z,96042
2023-05-23T05:43:27.469Z,96043
2023-05-23T05:44:27.409Z,96046
2023-05-23T05:45:27.440Z,96042
2023-05-23T05:46:27.437Z,96044
2023-05-23T05:47:27.456Z,96044
2023-05-23T05:48:27.462Z,96048
2023-05-23T05:49:27.431Z,96045
2023-05-23T05:50:27.434Z,96047
2023-05-23T05:51:27.399Z,96047
2023-05-23T05:52:27.441Z,96049
2023-05-23T05:53:27.459Z,96046
2023-05-23T05:54:27.423Z,96047
2023-05-23T05:55:27.476Z,96047
2023-05-23T05:56:27.408Z,96047
2023-05-23T05:57:27.458Z,96052
2023-05-23T05:58:27.479Z,96050
2023-05-23T05:59:27.442Z,96054
2023-05-23T06:00:27.456Z,96059
2023-05-23T06:01:27.472Z,96059
2023-05-23T06:02:27.522Z,96059
2023-05-23T06:03:27.673Z,96057
2023-05-23T06:04:27.492Z,96056
2023-05-23T06:05:27.475Z,96056
2023-05-23T06:06:27.506Z,96060
2023-05-23T06:07:27.499Z,96058
2023-05-23T06:08:27.503Z,96061
2023-05-23T06:09:27.464Z,96061
2023-05-23T06:10:27.490Z,96067
2023-05-23T06:11:27.531Z,96066
2023-05-23T06:12:27.456Z,96068
2023-05-23T06:13:27.474Z,96068
2023-05-23T06:14:27.509Z,96066
2023-05-23T06:15:27.514Z,96069
2023-05-23T06:16:27.584Z,96073
2023-05-23T06:17:27.519Z,96073
2023-05-23T06:18:27.510Z,96074
2023-05-23T06:19:27.553Z,96076
2023-05-23T06:20:27.496Z,96071
2023-05-23T06:21:27.545Z,96071
2023-05-23T06:22:27.479Z,96072
2023-05-23T06:23:27.484Z,96071
2023-05-23T06:24:27.521Z,96069
2023-05-23T06:25:27.495Z,96069
2023-05-23T06:26:27.537Z,96069
2023-05-23T06:27:27.544Z,96065
2023-05-23T06:28:27.504Z,96066
2023-05-23T06:30:27.547Z,96064
2023-05-23T06:31:27.546Z,96065
2023-05-23T06:32:27.691Z,96070
2023-05-23T06:33:27.556Z,96072
2023-05-23T06:34:27.520Z,96070
2023-05-23T06:35:27.589Z,96076
2023-05-23T06:36:27.556Z,96073
2023-05-23T06:37:27.592Z,96078
2023-05-23T06:38:27.552Z,96074
2023-05-23T06:39:27.520Z,96074
2023-05-23T06:40:30.146Z,96083
2023-05-23T06:41:27.541Z,96077
2023-05-23T06:42:27.553Z,96077
2023-05-23T06:43:27.555Z,96078
2023-05-23T06:44:27.587Z,96078
2023-05-23T06:45:27.574Z,96078
2023-05-23T06:46:27.701Z,96078
2023-05-23T06:47:27.607Z,96076
2023-05-23T06:48:27.583Z,96072
2023-05-23T06:49:27.603Z,96075
2023-05-23T06:50:27.746Z,96076
2023-05-23T06:51:27.625Z,96077
2023-05-23T06:52:27.578Z,96077
2023-05-23T06:53:27.600Z,96070
2023-05-23T06:54:27.604Z,96076
2023-05-23T06:55:27.588Z,96076
2023-05-23T06:56:27.602Z,96075
2023-05-23T06:57:27.629Z,96074
2023-05-23T06:58:27.631Z,96072
2023-05-23T06:59:27.655Z,96073
2023-05-23T07:00:27.606Z,96073
2023-05-23T07:01:27.685Z,96075
2023-05-23T07:02:27.632Z,96077
2023-05-23T07:03:27.651Z,96076
2023-05-23T07:04:27.591Z,96076
2023-05-23T07:05:27.649Z,96075
2023-05-23T07:07:27.623Z,96072
2023-05-23T07:09:27.681Z,96078
2023-05-23T07:10:27.699Z,96079
2023-05-23T07:11:27.639Z,96080
2023-05-23T07:12:27.652Z,96083
2023-05-23T07:13:27.650Z,96080
2023-05-23T07:14:27.669Z,96086
2023-05-23T07:15:27.726Z,96082
2023-05-23T07:17:30.441Z,96083
2023-05-23T07:18:27.667Z,96087
2023-05-23T07:19:27.761Z,96088
2023-05-23T07:20:27.692Z,96087
2023-05-23T07:21:27.652Z,96087
2023-05-23T07:22:27.680Z,96090
2023-05-23T07:23:27.651Z,96090
2023-05-23T07:24:27.630Z,96089
2023-05-23T07:25:27.672Z,96092
2023-05-23T07:26:27.710Z,96092
2023-05-23T07:27:27.705Z,96094
2023-05-23T07:28:27.692Z,96095
2023-05-23T07:29:27.696Z,96093
2023-05-23T07:30:27.695Z,96094
2023-05-23T07:31:27.721Z,96099
2023-05-23T07:32:27.778Z,96097
2023-05-23T07:33:27.819Z,96098
2023-05-23T07:34:27.677Z,96100
2023-05-23T07:35:27.726Z,96098
2023-05-23T07:36:27.714Z,96095
2023-05-23T07:37:27.711Z,96103
2023-05-23T07:38:27.723Z,96105
2023-05-23T07:39:27.708Z,96105
2023-05-23T07:40:27.726Z,96109
2023-05-23T07:41:27.699Z,96106
2023-05-23T07:42:27.749Z,96105
2023-05-23T07:43:27.747Z,96111
2023-05-23T07:44:27.702Z,96115
2023-05-23T07:45:27.721Z,96114
2023-05-23T07:46:27.863Z,96113
2023-05-23T07:47:27.783Z,96115
2023-05-23T07:48:27.708Z,96115
2023-05-23T07:49:27.708Z,96116
2023-05-23T07:50:27.786Z,96117
2023-05-23T07:51:27.761Z,96118
2023-05-23T07:52:27.742Z,96118
2023-05-23T07:53:27.749Z,96115
2023-05-23T07:54:30.570Z,96116
2023-05-23T07:55:27.748Z,96119
2023-05-23T07:56:27.796Z,96119
2023-05-23T07:57:27.758Z,96120
2023-05-23T07:58:27.756Z,96122
2023-05-23T07:59:27.788Z,96120
2023-05-23T08:00:27.848Z,96118
2023-05-23T08:01:27.791Z,96116
2023-05-23T08:02:27.850Z,96119
2023-05-23T08:03:27.777Z,96115
2023-05-23T08:04:27.790Z,96115
2023-05-23T08:05:27.769Z,96119
2023-05-23T08:06:27.815Z,96119
2023-05-23T08:07:27.822Z,96118
2023-05-23T08:08:27.827Z,96117
2023-05-23T08:10:27.806Z,96121
2023-05-23T08:11:27.852Z,96120
2023-05-23T08:12:27.808Z,96119
2023-05-23T08:13:27.753Z,96119
2023-05-23T08:14:38.686Z,96116
2023-05-23T08:15:27.816Z,96119
2023-05-23T08:16:27.839Z,96119
2023-05-23T08:17:27.969Z,96120
2023-05-23T08:18:27.850Z,96122
2023-05-23T08:19:27.872Z,96120
2023-05-23T08:20:27.789Z,96123
2023-05-23T08:21:27.843Z,96121
2023-05-23T08:22:27.845Z,96121
2023-05-23T08:25:27.818Z,96121
2023-05-23T08:26:27.813Z,96118
2023-05-23T08:27:27.866Z,96120
2023-05-23T08:28:27.817Z,96118
2023-05-23T08:29:27.848Z,96121
2023-05-23T08:30:27.850Z,96121
2023-05-23T08:31:31.373Z,96122
2023-05-23T08:32:27.918Z,96121
2023-05-23T08:33:27.902Z,96120
2023-05-23T08:34:27.825Z,96120
2023-05-23T08:35:27.918Z,96119
2023-05-23T08:36:27.863Z,96114
2023-05-23T08:37:27.861Z,96114
2023-05-23T08:38:27.900Z,96118
2023-05-23T08:39:27.859Z,96121
2023-05-23T08:40:27.852Z,96121
2023-05-23T08:41:27.881Z,96123
2023-05-23T08:42:27.904Z,96120
2023-05-23T08:43:27.920Z,96124
2023-05-23T08:44:27.834Z,96124
2023-05-23T08:45:27.973Z,96129
2023-05-23T08:46:27.903Z,96131
2023-05-23T08:47:27.932Z,96131
2023-05-23T08:48:27.895Z,96132
2023-05-23T08:49:27.876Z,96132
2023-05-23T08:50:27.933Z,96130
2023-05-23T08:51:27.874Z,96130
2023-05-23T08:52:27.899Z,96130
2023-05-23T08:53:27.927Z,96131
2023-05-23T08:54:27.910Z,96132
2023-05-23T08:56:27.945Z,96131
2023-05-23T08:57:27.877Z,96127
2023-05-23T08:58:27.924Z,96130
2023-05-23T08:59:27.925Z,96123
2023-05-23T09:00:27.909Z,96123
2023-05-23T09:01:28.073Z,96121
2023-05-23T09:07:27.952Z,96122
2023-05-23T09:08:27.937Z,96122
2023-05-23T09:09:27.997Z,96118
2023-05-23T09:10:27.941Z,96121
2023-05-23T09:11:27.951Z,96117
2023-05-23T09:12:28.026Z,96117
2023-05-23T09:13:27.961Z,96118
2023-05-23T09:14:27.966Z,96120
2023-05-23T09:15:27.935Z,96113
2023-05-23T09:16:28.003Z,96114
2023-05-23T09:17:28.013Z,96116
2023-05-23T09:18:28.024Z,96116
2023-05-23T09:19:28.039Z,96119
2023-05-23T09:21:27.968Z,96113
2023-05-23T09:22:27.974Z,96115
2023-05-23T09:23:28.016Z,96114
2023-05-23T09:24:27.994Z,96115
2023-05-23T09:25:27.981Z,96112
2023-05-23T09:26:27.998Z,96112
2023-05-23T09:27:27.993Z,96110
2023-05-23T09:28:27.963Z,96105
2023-05-23T09:29:27.977Z,96116
2023-05-23T09:30:28.023Z,96111
2023-05-23T09:31:28.015Z,96113
2023-05-23T09:32:28.108Z,96111
2023-05-23T09:33:28.042Z,96108
2023-05-23T09:34:28.014Z,96108
2023-05-23T09:35:30.418Z,96106
2023-05-23T09:36:28.059Z,96110
2023-05-23T09:37:28.077Z,96111
2023-05-23T09:38:28.054Z,96110
2023-05-23T09:39:28.005Z,96107
2023-05-23T09:40:28.050Z,96105
2023-05-23T09:41:28.053Z,96103
2023-05-23T09:42:28.023Z,96103
2023-05-23T09:43:28.055Z,96108
2023-05-23T09:44:28.072Z,96099
2023-05-23T09:45:28.069Z,96106
2023-05-23T09:46:28.086Z,96103
2023-05-23T09:47:28.078Z,96099
2023-05-23T09:48:28.080Z,96099
2023-05-23T09:49:28.086Z,96100
2023-05-23T09:50:28.069Z,96098
2023-05-23T09:51:28.084Z,96098
2023-05-23T09:52:28.087Z,96096
2023-05-23T09:53:28.059Z,96095
2023-05-23T09:54:28.057Z,96090
2023-05-23T09:55:28.068Z,96094
2023-05-23T09:56:28.101Z,96092
2023-05-23T09:57:28.086Z,96094
2023-05-23T09:58:28.101Z,96093
2023-05-23T09:59:28.088Z,96095
2023-05-23T10:00:28.090Z,96094
2023-05-23T10:01:28.102Z,96093
2023-05-23T10:02:28.055Z,96095
2023-05-23T10:03:28.117Z,96091
2023-05-23T10:04:28.150Z,96090
2023-05-23T10:05:28.091Z,96093
2023-05-23T10:06:28.099Z,96091
2023-05-23T10:07:28.089Z,96093
2023-05-23T10:08:28.080Z,96090
2023-05-23T10:09:28.154Z,96090
2023-05-23T10:10:28.111Z,96086
2023-05-23T10:11:28.119Z,96083
2023-05-23T10:12:30.603Z,96083
2023-05-23T10:13:28.109Z,96083
2023-05-23T10:14:28.104Z,96084
2023-05-23T10:15:28.160Z,96087
2023-05-23T10:16:28.216Z,96083
2023-05-23T10:17:28.143Z,96085
2023-05-23T10:18:28.111Z,96079
2023-05-23T10:19:28.174Z,96079
2023-05-23T10:20:28.141Z,96082
2023-05-23T10:21:28.155Z,96078
2023-05-23T10:22:28.168Z,96077
2023-05-23T10:23:28.111Z,96077
2023-05-23T10:24:28.140Z,96079
2023-05-23T10:25:28.137Z,96076
2023-05-23T10:26:28.149Z,96076
2023-05-23T10:27:28.155Z,96077
2023-05-23T10:28:28.189Z,96077
2023-05-23T10:29:28.157Z,96079
2023-05-23T10:30:28.166Z,96079
2023-05-23T10:31:28.208Z,96071
2023-05-23T10:32:28.218Z,96071
2023-05-23T10:33:29.768Z,96067
2023-05-23T10:34:28.207Z,96068
2023-05-23T10:35:28.211Z,96064
2023-05-23T10:36:28.156Z,96064
2023-05-23T10:37:28.221Z,96065
2023-05-23T10:38:28.233Z,96068
2023-05-23T10:39:28.209Z,96069
2023-05-23T10:40:28.220Z,96070
2023-05-23T10:41:28.152Z,96070
2023-05-23T10:42:28.235Z,96071
2023-05-23T10:43:28.166Z,96067
2023-05-23T10:44:28.168Z,96067
2023-05-23T10:45:28.246Z,96071
2023-05-23T10:46:28.323Z,96068
2023-05-23T10:47:28.370Z,96071
2023-05-23T10:48:28.212Z,96067
2023-05-23T10:49:30.955Z,96072
2023-05-23T10:50:28.218Z,96061
2023-05-23T10:51:28.194Z,96061
2023-05-23T10:52:28.212Z,96060
2023-05-23T10:53:28.212Z,96059
2023-05-23T10:54:28.233Z,96054
2023-05-23T10:55:28.234Z,96051
2023-05-23T10:56:28.251Z,96053
2023-05-23T10:57:28.217Z,96053
2023-05-23T10:58:28.258Z,96049
2023-05-23T10:59:28.226Z,96051
2023-05-23T11:00:28.248Z,96054
2023-05-23T11:01:28.294Z,96050
2023-05-23T11:02:28.329Z,96054
2023-05-23T11:03:28.324Z,96050
2023-05-23T11:04:28.320Z,96047
2023-05-23T11:05:28.320Z,96045
2023-05-23T11:06:28.299Z,96041
2023-05-23T11:07:28.226Z,96040
2023-05-23T11:08:39.316Z,96038
2023-05-23T11:09:28.292Z,96039
2023-05-23T11:10:28.293Z,96043
2023-05-23T11:11:28.266Z,96038
2023-05-23T11:12:28.244Z,96038
2023-05-23T11:13:28.301Z,96036
2023-05-23T11:14:28.312Z,96031
2023-05-23T11:15:28.255Z,96031
2023-05-23T11:16:28.305Z,96025
2023-05-23T11:17:28.337Z,96026
2023-05-23T11:18:28.305Z,96024
2023-05-23T11:19:28.812Z,96023
2023-05-23T11:20:28.256Z,96028
2023-05-23T11:21:28.325Z,96029
2023-05-23T11:22:28.298Z,96031
2023-05-23T11:23:28.284Z,96031
2023-05-23T11:24:28.316Z,96029
2023-05-23T11:26:31.180Z,96028
2023-05-23T11:27:28.330Z,96028
2023-05-23T11:28:28.261Z,96026
2023-05-23T11:29:28.301Z,96027
2023-05-23T11:30:28.346Z,96030
2023-05-23T11:31:28.381Z,96029
2023-05-23T11:32:28.451Z,96028
2023-05-23T11:33:28.324Z,96028
2023-05-23T11:34:28.354Z,96029
2023-05-23T11:35:28.382Z,96028
2023-05-23T11:36:28.326Z,96029
2023-05-23T11:37:28.333Z,96028
2023-05-23T11:38:28.298Z,96029
2023-05-23T11:42:28.360Z,96028
2023-05-23T11:43:28.384Z,96025
2023-05-23T11:44:28.388Z,96027
2023-05-23T11:46:28.392Z,96032
2023-05-23T11:47:28.431Z,96030
2023-05-23T11:48:28.370Z,96028
2023-05-23T11:49:28.370Z,96030
2023-05-23T11:50:28.408Z,96026
2023-05-23T11:51:28.424Z,96028
2023-05-23T11:52:28.390Z,96031
2023-05-23T11:53:28.417Z,96023
2023-05-23T11:54:28.368Z,96022
2023-05-23T11:55:28.391Z,96019
2023-05-23T11:56:28.406Z,96019
2023-05-23T11:57:28.426Z,96016
2023-05-23T11:58:28.419Z,96015
2023-05-23T11:59:28.370Z,96017
2023-05-23T12:00:28.421Z,96015
2023-05-23T12:01:28.423Z,96016
2023-05-23T12:02:28.461Z,96015
2023-05-23T12:03:31.737Z,96017
2023-05-23T12:04:28.445Z,96018
2023-05-23T12:05:28.449Z,96020
2023-05-23T12:09:28.447Z,96023
2023-05-23T12:10:28.478Z,96019
2023-05-23T12:11:28.425Z,96022
2023-05-23T12:12:30.088Z,96022
2023-05-23T12:13:28.433Z,96021
2023-05-23T12:14:28.472Z,96023
2023-05-23T12:15:28.441Z,96021
2023-05-23T12:16:28.480Z,96019
2023-05-23T12:17:28.487Z,96019
2023-05-23T12:18:28.446Z,96015
2023-05-23T12:19:28.509Z,96012
2023-05-23T12:20:28.418Z,96012
2023-05-23T12:21:28.483Z,96016
2023-05-23T12:22:28.473Z,96016
2023-05-23T12:23:28.471Z,96018
2023-05-23T12:24:28.459Z,96018
2023-05-23T12:25:28.450Z,96018
2023-05-23T12:26:28.499Z,96016
2023-05-23T12:27:28.489Z,96022
2023-05-23T12:28:28.497Z,96024
2023-05-23T12:29:28.477Z,96021
2023-05-23T12:30:28.445Z,96025
2023-05-23T12:31:28.578Z,96030
2023-05-23T12:32:28.546Z,96028
2023-05-23T12:33:28.457Z,96028
2023-05-23T12:34:28.520Z,96031
2023-05-23T12:35:28.526Z,96029
2023-05-23T12:36:29.857Z,96032
2023-05-23T12:37:28.529Z,96034
2023-05-23T12:38:28.463Z,96033
2023-05-23T12:39:28.521Z,96034
2023-05-23T12:41:28.515Z,96033
2023-05-23T12:42:30.652Z,96034
2023-05-23T12:43:28.506Z,96034
2023-05-23T12:44:28.543Z,96036
2023-05-23T12:45:28.562Z,96035
2023-05-23T12:46:28.606Z,96029
2023-05-23T12:47:28.597Z,96033
2023-05-23T12:48:28.572Z,96032
2023-05-23T12:49:28.582Z,96028
2023-05-23T12:50:28.619Z,96027
2023-05-23T12:51:28.501Z,96027
2023-05-23T12:53:28.583Z,96024
2023-05-23T12:54:28.556Z,96024
2023-05-23T12:55:28.559Z,96022
2023-05-23T12:56:28.579Z,96024
2023-05-23T12:57:28.583Z,96020
2023-05-23T12:58:30.960Z,96028
2023-05-23T12:59:28.548Z,96028
2023-05-23T13:00:28.587Z,96031
2023-05-23T13:01:28.676Z,96035
2023-05-23T13:02:28.633Z,96039
2023-05-23T13:03:28.608Z,96037
2023-05-23T13:04:30.933Z,96043
2023-05-23T13:05:28.566Z,96043
2023-05-23T13:06:28.577Z,96047
2023-05-23T13:07:28.562Z,96047
2023-05-23T13:09:28.556Z,96051
2023-05-23T13:10:30.956Z,96058
2023-05-23T13:11:28.620Z,96056
2023-05-23T13:12:28.586Z,96053
2023-05-23T13:13:28.625Z,96055
2023-05-23T13:14:28.604Z,96049
2023-05-23T13:15:28.616Z,96050
2023-05-23T13:17:31.919Z,96046
2023-05-23T13:18:28.639Z,96046
2023-05-23T13:19:28.669Z,96042
2023-05-23T13:20:28.640Z,96050
2023-05-23T13:21:28.603Z,96047
2023-05-23T13:22:28.620Z,96047
2023-05-23T13:23:28.652Z,96052
2023-05-23T13:25:28.624Z,96055
2023-05-23T13:26:28.651Z,96051
2023-05-23T13:27:28.638Z,96051
2023-05-23T13:28:28.627Z,96049
2023-05-23T13:29:28.633Z,96046
2023-05-23T13:30:28.647Z,96051
2023-05-23T13:31:28.735Z,96040
2023-05-23T13:32:28.664Z,96042
2023-05-23T13:33:28.653Z,96041
2023-05-23T13:34:28.710Z,96042
2023-05-23T13:35:28.618Z,96042
2023-05-23T13:36:28.677Z,96030
2023-05-23T13:37:28.693Z,96031
2023-05-23T13:38:28.663Z,96025
2023-05-23T13:39:28.678Z,96018
2023-05-23T13:40:28.644Z,96018
2023-05-23T13:41:28.692Z,96025
2023-05-23T13:42:28.679Z,96027
2023-05-23T13:43:28.684Z,96024
2023-05-23T13:44:28.704Z,96021
2023-05-23T13:45:28.674Z,96021
2023-05-23T13:46:28.733Z,96021
2023-05-23T13:47:28.726Z,96019
2023-05-23T13:48:28.683Z,96020
2023-05-23T13:49:28.716Z,96021
2023-05-23T13:50:28.748Z,96017
2023-05-23T13:51:28.734Z,96020
2023-05-23T13:52:28.716Z,96019
2023-05-23T13:53:28.665Z,96019
2023-05-23T13:54:32.118Z,96018
2023-05-23T13:55:28.756Z,96022
2023-05-23T13:56:28.743Z,96024
2023-05-23T13:57:28.741Z,96022
2023-05-23T13:58:30.155Z,96028
2023-05-23T13:59:28.721Z,96033
2023-05-23T14:01:28.735Z,96034
2023-05-23T14:02:28.772Z,96033
2023-05-23T14:03:28.724Z,96035
2023-05-23T14:04:28.731Z,96038
2023-05-23T14:05:28.804Z,96038
2023-05-23T14:06:28.714Z,96038
2023-05-23T14:07:28.746Z,96042
2023-05-23T14:08:28.788Z,96041
2023-05-23T14:09:28.791Z,96040
2023-05-23T14:10:28.740Z,96044
2023-05-23T14:11:28.761Z,96043
2023-05-23T14:12:28.769Z,96046
2023-05-23T14:13:28.748Z,96044
2023-05-23T14:14:28.719Z,96044
2023-05-23T14:15:28.814Z,96050